Grover Hill, OH (45849)

2:09 AM EDT on July 02, 2015 (GMT -0400)
3 miles WNW of Melrose | | Change Station
CLOSE
Current Station
Personal Weather Station
Location: Paulding County, OH
Elevation: 722 ft
Nearby Weather Stations
Active Advisory: Flood Warning

Elev 722 ft 41.10 °N, 84.48 °W | Updated 2 seconds ago

Mostly Cloudy
Mostly Cloudy
59.1 °F
Feels Like 59.1 °F
N
2.0
Wind Variable Wind from NNW
Gusts 4.0 mph

Today
High -- | Low -- °F
--% Chance of Precip.
Yesterday
High -- | Low -- °F
Precip. -- in
6:09 AM 9:13 PM
Full, 100% visible
Pressure 29.95 in
Visibility 10.0 miles
Clouds Mostly Cloudy 4300 ft
Dew Point 56 °F
Humidity 89%
Rainfall 0.00 in
Snow Depth Not available.
UV 0 out of 12
Pollen 3.50 out of 12
Air Quality Not available.
Flu Activity Not available.
METAR KDFI 020553Z AUTO 36003KT 10SM BKN043 16/13 A2996 RMK AO2 SLP142 T01610128 10217 20161 52004

More Conditions Fewer Conditions

Pressure 29.95 in
Visibility 10.0 miles
Clouds Mostly Cloudy 4300 ft
Dew Point 56 °F
Humidity 89%
Rainfall 0.00 in
Snow Depth Not available.
UV 0 out of 12
Pollen 3.50 out of 12
Air Quality Not available.
Flu Activity Not available.
METAR KDFI 020553Z AUTO 36003KT 10SM BKN043 16/13 A2996 RMK AO2 SLP142 T01610128 10217 20161 52004

More Conditions Fewer Conditions

10-Day Weather Forecast

×

Almanac

Astronomy

Jul. 02, 2015 Rise Set
Actual Time
Civil Twilight
Nautical Twilight
Astronomical Twilight
Moon
Length of Visible Light
Length of Day
Tomorrow will be .
, % of the Moon is Illuminated

Today's Extremes

State Highs State Lows

Community

WunderPhotos

Upload Photos

1,834,422 photos uploaded!

WunderBlogs® & News

Nearby

Air Quality

  Air Quality AQ Index Pollutant
Not available.

Snow Depth

Station Depth Elevation

Earthquake Activity

City Distance Mag. Time & Date
Minimum magnitude displayed is 2.5.

Coastal Water Temperatures

Place Temperature

Stations

Nearby Weather Stations

Station Location Temp. Windchill Dew Point Humidity Wind Precip. Elev Updated Type
                   
Flood Warning
Statement as of 9:38 PM EDT on July 01, 2015

the Flood Warning has been extended for
the Maumee River at ft. Wayne
* until Friday morning.
* At 9 PM Wednesday the stage was 17.9 feet and falling.
* Minor flooding is occurring and minor flooding is forecast.
* Flood stage is 17.0 feet.
* Forecast... the river will fall below the 17.0 foot flood stage
around 8 am Thursday July 2.
* At 18.0 feet... the lowest unprotected city streets begin to flood.
A few residents of River Haven are affected by high water.


Lat... Lon 4107 8513 4110 8511 4110 8505 4113 8495
      4111 8492 4106 8503